sensor_id;sensor_type;location;lat;lon;timestamp;temperature;humidity
65044;DHT22;51617;48.158;16.464;2022-10-14T00:00:13;12.10;98.70
65044;DHT22;51617;48.158;16.464;2022-10-14T00:02:38;12.20;98.70
65044;DHT22;51617;48.158;16.464;2022-10-14T00:05:04;12.10;98.80
65044;DHT22;51617;48.158;16.464;2022-10-14T00:07:30;12.10;98.70
65044;DHT22;51617;48.158;16.464;2022-10-14T00:09:55;12.20;98.60
65044;DHT22;51617;48.158;16.464;2022-10-14T00:12:21;7.90;97.30
65044;DHT22;51617;48.158;16.464;2022-10-14T00:14:46;12.00;98.50
65044;DHT22;51617;48.158;16.464;2022-10-14T00:17:12;11.90;98.60
65044;DHT22;51617;48.158;16.464;2022-10-14T00:19:37;11.90;98.80
65044;DHT22;51617;48.158;16.464;2022-10-14T00:22:03;12.00;98.80
65044;DHT22;51617;48.158;16.464;2022-10-14T00:24:28;12.00;98.60
65044;DHT22;51617;48.158;16.464;2022-10-14T00:26:54;11.90;98.40
65044;DHT22;51617;48.158;16.464;2022-10-14T00:29:20;11.90;98.70
65044;DHT22;51617;48.158;16.464;2022-10-14T00:31:45;11.80;98.40
65044;DHT22;51617;48.158;16.464;2022-10-14T00:34:11;11.90;98.80
65044;DHT22;51617;48.158;16.464;2022-10-14T00:36:40;11.90;98.70
65044;DHT22;51617;48.158;16.464;2022-10-14T00:39:06;11.90;98.50
65044;DHT22;51617;48.158;16.464;2022-10-14T00:41:32;11.80;98.50
65044;DHT22;51617;48.158;16.464;2022-10-14T00:44:05;11.70;98.70
65044;DHT22;51617;48.158;16.464;2022-10-14T00:46:33;11.60;98.70
65044;DHT22;51617;48.158;16.464;2022-10-14T00:49:00;11.60;98.90
65044;DHT22;51617;48.158;16.464;2022-10-14T00:51:26;11.60;99.10
65044;DHT22;51617;48.158;16.464;2022-10-14T00:53:52;11.60;99.20
65044;DHT22;51617;48.158;16.464;2022-10-14T00:56:18;11.60;99.20
65044;DHT22;51617;48.158;16.464;2022-10-14T00:58:46;11.60;99.00
65044;DHT22;51617;48.158;16.464;2022-10-14T01:01:11;11.60;99.10
65044;DHT22;51617;48.158;16.464;2022-10-14T01:03:38;11.50;99.20
65044;DHT22;51617;48.158;16.464;2022-10-14T01:08:31;11.40;98.70
65044;DHT22;51617;48.158;16.464;2022-10-14T01:11:00;11.30;99.00
65044;DHT22;51617;48.158;16.464;2022-10-14T01:13:32;11.30;99.20
65044;DHT22;51617;48.158;16.464;2022-10-14T01:31:02;11.50;99.60
65044;DHT22;51617;48.158;16.464;2022-10-14T01:33:34;11.50;99.50
65044;DHT22;51617;48.158;16.464;2022-10-14T01:38:44;11.60;99.40
65044;DHT22;51617;48.158;16.464;2022-10-14T01:41:12;11.60;99.10
65044;DHT22;51617;48.158;16.464;2022-10-14T01:43:38;11.60;99.50
65044;DHT22;51617;48.158;16.464;2022-10-14T01:46:05;11.50;98.70
65044;DHT22;51617;48.158;16.464;2022-10-14T01:48:34;11.50;98.40
65044;DHT22;51617;48.158;16.464;2022-10-14T01:51:02;11.30;98.60
65044;DHT22;51617;48.158;16.464;2022-10-14T01:53:30;11.20;98.60
65044;DHT22;51617;48.158;16.464;2022-10-14T01:55:56;11.10;98.60
65044;DHT22;51617;48.158;16.464;2022-10-14T01:58:23;11.00;98.90
65044;DHT22;51617;48.158;16.464;2022-10-14T02:00:50;11.00;99.10
65044;DHT22;51617;48.158;16.464;2022-10-14T02:03:15;11.00;99.20
65044;DHT22;51617;48.158;16.464;2022-10-14T02:05:45;11.00;99.10
65044;DHT22;51617;48.158;16.464;2022-10-14T02:14:36;11.30;99.20
65044;DHT22;51617;48.158;16.464;2022-10-14T02:16:45;11.30;99.00
65044;DHT22;51617;48.158;16.464;2022-10-14T02:19:20;11.10;98.50
65044;DHT22;51617;48.158;16.464;2022-10-14T02:21:58;11.00;98.80
65044;DHT22;51617;48.158;16.464;2022-10-14T02:24:30;10.90;99.00
65044;DHT22;51617;48.158;16.464;2022-10-14T02:26:59;10.90;99.10
65044;DHT22;51617;48.158;16.464;2022-10-14T02:29:25;10.90;99.10
65044;DHT22;51617;48.158;16.464;2022-10-14T02:31:51;10.90;99.00
65044;DHT22;51617;48.158;16.464;2022-10-14T02:34:18;10.90;99.00
65044;DHT22;51617;48.158;16.464;2022-10-14T02:36:45;10.70;99.10
65044;DHT22;51617;48.158;16.464;2022-10-14T02:39:12;10.70;99.30
65044;DHT22;51617;48.158;16.464;2022-10-14T02:41:39;10.70;99.40
65044;DHT22;51617;48.158;16.464;2022-10-14T02:44:06;10.80;99.20
65044;DHT22;51617;48.158;16.464;2022-10-14T02:46:32;10.90;99.50
65044;DHT22;51617;48.158;16.464;2022-10-14T02:48:58;10.70;99.40
65044;DHT22;51617;48.158;16.464;2022-10-14T02:51:23;10.80;99.40
65044;DHT22;51617;48.158;16.464;2022-10-14T02:53:49;10.80;99.80
65044;DHT22;51617;48.158;16.464;2022-10-14T02:56:15;10.90;99.80
65044;DHT22;51617;48.158;16.464;2022-10-14T02:58:41;11.00;99.70
65044;DHT22;51617;48.158;16.464;2022-10-14T03:01:07;11.10;99.90
65044;DHT22;51617;48.158;16.464;2022-10-14T03:03:32;11.20;99.80
65044;DHT22;51617;48.158;16.464;2022-10-14T03:05:58;11.30;99.50
65044;DHT22;51617;48.158;16.464;2022-10-14T03:08:23;11.30;99.30
65044;DHT22;51617;48.158;16.464;2022-10-14T03:10:49;11.20;98.90
65044;DHT22;51617;48.158;16.464;2022-10-14T03:13:15;11.20;99.10
65044;DHT22;51617;48.158;16.464;2022-10-14T03:15:40;11.20;99.30
65044;DHT22;51617;48.158;16.464;2022-10-14T03:18:06;11.00;99.60
65044;DHT22;51617;48.158;16.464;2022-10-14T03:20:31;11.10;99.90
65044;DHT22;51617;48.158;16.464;2022-10-14T03:22:57;11.10;99.70
65044;DHT22;51617;48.158;16.464;2022-10-14T03:25:22;11.20;99.50
65044;DHT22;51617;48.158;16.464;2022-10-14T03:27:48;11.30;99.80
65044;DHT22;51617;48.158;16.464;2022-10-14T03:30:14;11.30;99.90
65044;DHT22;51617;48.158;16.464;2022-10-14T03:32:39;11.40;99.70
65044;DHT22;51617;48.158;16.464;2022-10-14T03:35:05;11.50;99.80
65044;DHT22;51617;48.158;16.464;2022-10-14T03:37:30;11.60;99.70
65044;DHT22;51617;48.158;16.464;2022-10-14T03:39:56;11.60;99.40
65044;DHT22;51617;48.158;16.464;2022-10-14T03:42:21;11.80;99.60
65044;DHT22;51617;48.158;16.464;2022-10-14T03:44:47;11.90;99.40
65044;DHT22;51617;48.158;16.464;2022-10-14T03:47:12;11.90;99.20
65044;DHT22;51617;48.158;16.464;2022-10-14T03:49:38;11.90;99.10
65044;DHT22;51617;48.158;16.464;2022-10-14T03:52:03;11.80;98.70
65044;DHT22;51617;48.158;16.464;2022-10-14T03:54:29;11.80;98.90
65044;DHT22;51617;48.158;16.464;2022-10-14T03:56:54;11.80;99.00
65044;DHT22;51617;48.158;16.464;2022-10-14T03:59:20;11.80;99.10
65044;DHT22;51617;48.158;16.464;2022-10-14T04:01:45;11.80;99.10
65044;DHT22;51617;48.158;16.464;2022-10-14T04:04:11;11.80;98.90
65044;DHT22;51617;48.158;16.464;2022-10-14T04:06:36;11.90;98.90
65044;DHT22;51617;48.158;16.464;2022-10-14T04:09:03;12.00;99.20
65044;DHT22;51617;48.158;16.464;2022-10-14T04:11:28;12.10;99.10
65044;DHT22;51617;48.158;16.464;2022-10-14T04:13:57;12.20;99.00
65044;DHT22;51617;48.158;16.464;2022-10-14T04:16:23;12.20;98.90
65044;DHT22;51617;48.158;16.464;2022-10-14T04:18:48;12.30;98.90
65044;DHT22;51617;48.158;16.464;2022-10-14T04:21:14;12.30;98.60
65044;DHT22;51617;48.158;16.464;2022-10-14T04:23:39;12.20;98.30
65044;DHT22;51617;48.158;16.464;2022-10-14T04:26:06;12.10;98.60
65044;DHT22;51617;48.158;16.464;2022-10-14T04:28:32;12.00;98.90
65044;DHT22;51617;48.158;16.464;2022-10-14T04:30:57;12.00;99.20
65044;DHT22;51617;48.158;16.464;2022-10-14T04:33:24;12.10;99.30
65044;DHT22;51617;48.158;16.464;2022-10-14T04:35:49;12.10;99.10
65044;DHT22;51617;48.158;16.464;2022-10-14T04:38:15;12.10;99.30
65044;DHT22;51617;48.158;16.464;2022-10-14T04:40:44;12.10;98.90
65044;DHT22;51617;48.158;16.464;2022-10-14T04:43:09;12.10;99.20
65044;DHT22;51617;48.158;16.464;2022-10-14T04:45:35;12.00;99.10
65044;DHT22;51617;48.158;16.464;2022-10-14T04:48:00;12.10;99.50
65044;DHT22;51617;48.158;16.464;2022-10-14T04:50:26;12.10;99.60
65044;DHT22;51617;48.158;16.464;2022-10-14T04:52:51;12.00;99.40
65044;DHT22;51617;48.158;16.464;2022-10-14T04:55:17;12.00;99.60
65044;DHT22;51617;48.158;16.464;2022-10-14T04:57:43;12.10;99.90
65044;DHT22;51617;48.158;16.464;2022-10-14T05:00:09;12.20;99.90
65044;DHT22;51617;48.158;16.464;2022-10-14T05:02:36;12.30;99.70
65044;DHT22;51617;48.158;16.464;2022-10-14T05:05:01;12.20;99.50
65044;DHT22;51617;48.158;16.464;2022-10-14T05:07:27;12.30;99.70
65044;DHT22;51617;48.158;16.464;2022-10-14T05:09:53;12.30;99.80
65044;DHT22;51617;48.158;16.464;2022-10-14T05:12:18;12.30;99.80
65044;DHT22;51617;48.158;16.464;2022-10-14T05:14:44;12.20;99.40
65044;DHT22;51617;48.158;16.464;2022-10-14T05:17:10;12.30;99.30
65044;DHT22;51617;48.158;16.464;2022-10-14T05:19:36;12.40;99.40
65044;DHT22;51617;48.158;16.464;2022-10-14T05:22:01;12.30;99.50
65044;DHT22;51617;48.158;16.464;2022-10-14T05:24:27;12.30;99.60
65044;DHT22;51617;48.158;16.464;2022-10-14T05:26:52;12.40;99.50
65044;DHT22;51617;48.158;16.464;2022-10-14T05:29:18;12.40;99.60
65044;DHT22;51617;48.158;16.464;2022-10-14T05:31:44;12.50;99.60
65044;DHT22;51617;48.158;16.464;2022-10-14T05:34:10;12.50;99.30
65044;DHT22;51617;48.158;16.464;2022-10-14T05:36:35;12.60;99.00
65044;DHT22;51617;48.158;16.464;2022-10-14T05:39:02;12.50;98.90
65044;DHT22;51617;48.158;16.464;2022-10-14T05:41:27;12.50;98.90
65044;DHT22;51617;48.158;16.464;2022-10-14T05:43:53;12.40;98.70
65044;DHT22;51617;48.158;16.464;2022-10-14T05:46:18;12.40;99.00
65044;DHT22;51617;48.158;16.464;2022-10-14T05:48:44;12.30;98.90
65044;DHT22;51617;48.158;16.464;2022-10-14T05:51:09;12.30;99.10
65044;DHT22;51617;48.158;16.464;2022-10-14T05:53:35;12.40;99.50
65044;DHT22;51617;48.158;16.464;2022-10-14T05:56:05;12.40;99.40
65044;DHT22;51617;48.158;16.464;2022-10-14T05:58:31;12.60;99.60
65044;DHT22;51617;48.158;16.464;2022-10-14T06:01:03;12.60;99.50
65044;DHT22;51617;48.158;16.464;2022-10-14T06:03:29;12.60;99.50
65044;DHT22;51617;48.158;16.464;2022-10-14T06:05:55;12.70;99.60
65044;DHT22;51617;48.158;16.464;2022-10-14T06:08:21;12.70;99.20
65044;DHT22;51617;48.158;16.464;2022-10-14T06:10:46;12.80;99.60
65044;DHT22;51617;48.158;16.464;2022-10-14T06:13:12;12.90;99.40
65044;DHT22;51617;48.158;16.464;2022-10-14T06:15:38;13.00;99.40
65044;DHT22;51617;48.158;16.464;2022-10-14T06:18:04;13.00;99.10
65044;DHT22;51617;48.158;16.464;2022-10-14T06:20:29;13.00;99.20
65044;DHT22;51617;48.158;16.464;2022-10-14T06:22:57;13.10;99.20
65044;DHT22;51617;48.158;16.464;2022-10-14T06:25:23;13.30;99.30
65044;DHT22;51617;48.158;16.464;2022-10-14T06:27:48;13.40;99.30
65044;DHT22;51617;48.158;16.464;2022-10-14T06:30:14;13.40;99.50
65044;DHT22;51617;48.158;16.464;2022-10-14T06:32:39;13.60;99.20
65044;DHT22;51617;48.158;16.464;2022-10-14T06:35:05;13.70;99.10
65044;DHT22;51617;48.158;16.464;2022-10-14T06:37:30;13.80;98.90
65044;DHT22;51617;48.158;16.464;2022-10-14T06:39:56;13.80;98.70
65044;DHT22;51617;48.158;16.464;2022-10-14T06:42:21;13.90;98.80
65044;DHT22;51617;48.158;16.464;2022-10-14T06:44:47;13.90;98.90
65044;DHT22;51617;48.158;16.464;2022-10-14T06:47:12;14.00;99.00
65044;DHT22;51617;48.158;16.464;2022-10-14T06:49:38;14.00;99.10
65044;DHT22;51617;48.158;16.464;2022-10-14T06:52:04;14.00;99.20
65044;DHT22;51617;48.158;16.464;2022-10-14T06:54:29;14.00;99.20
65044;DHT22;51617;48.158;16.464;2022-10-14T06:56:55;14.10;99.20
65044;DHT22;51617;48.158;16.464;2022-10-14T06:59:20;14.10;99.10
65044;DHT22;51617;48.158;16.464;2022-10-14T07:01:46;14.20;99.10
65044;DHT22;51617;48.158;16.464;2022-10-14T07:04:12;14.20;99.00
65044;DHT22;51617;48.158;16.464;2022-10-14T07:06:37;14.30;99.00
65044;DHT22;51617;48.158;16.464;2022-10-14T07:09:03;14.30;99.10
65044;DHT22;51617;48.158;16.464;2022-10-14T07:11:28;14.30;99.10
65044;DHT22;51617;48.158;16.464;2022-10-14T07:13:54;14.30;99.20
65044;DHT22;51617;48.158;16.464;2022-10-14T07:16:20;14.30;99.10
65044;DHT22;51617;48.158;16.464;2022-10-14T07:18:45;14.40;99.00
65044;DHT22;51617;48.158;16.464;2022-10-14T07:21:11;14.50;99.00
65044;DHT22;51617;48.158;16.464;2022-10-14T07:23:37;14.50;99.00
65044;DHT22;51617;48.158;16.464;2022-10-14T07:26:02;14.50;98.90
65044;DHT22;51617;48.158;16.464;2022-10-14T07:28:28;14.50;98.90
65044;DHT22;51617;48.158;16.464;2022-10-14T07:31:00;14.60;99.20
65044;DHT22;51617;48.158;16.464;2022-10-14T07:33:26;15.50;99.20
65044;DHT22;51617;48.158;16.464;2022-10-14T07:35:52;14.70;98.70
65044;DHT22;51617;48.158;16.464;2022-10-14T07:38:17;14.70;98.50
65044;DHT22;51617;48.158;16.464;2022-10-14T07:40:43;14.80;98.50
65044;DHT22;51617;48.158;16.464;2022-10-14T07:43:08;14.80;98.40
65044;DHT22;51617;48.158;16.464;2022-10-14T07:45:34;14.90;98.50
65044;DHT22;51617;48.158;16.464;2022-10-14T07:48:03;15.00;98.60
65044;DHT22;51617;48.158;16.464;2022-10-14T07:50:29;15.10;98.50
65044;DHT22;51617;48.158;16.464;2022-10-14T07:52:54;15.10;98.60
65044;DHT22;51617;48.158;16.464;2022-10-14T07:55:20;15.20;98.50
65044;DHT22;51617;48.158;16.464;2022-10-14T07:57:45;15.20;98.10
65044;DHT22;51617;48.158;16.464;2022-10-14T08:00:11;15.30;98.30
65044;DHT22;51617;48.158;16.464;2022-10-14T08:02:36;15.30;98.30
65044;DHT22;51617;48.158;16.464;2022-10-14T08:05:02;15.40;98.30
65044;DHT22;51617;48.158;16.464;2022-10-14T08:07:28;15.40;98.20
65044;DHT22;51617;48.158;16.464;2022-10-14T08:09:53;15.50;98.20
65044;DHT22;51617;48.158;16.464;2022-10-14T08:12:19;15.60;98.00
65044;DHT22;51617;48.158;16.464;2022-10-14T08:14:45;15.70;98.00
65044;DHT22;51617;48.158;16.464;2022-10-14T08:17:10;15.80;97.90
65044;DHT22;51617;48.158;16.464;2022-10-14T08:19:36;15.90;97.80
65044;DHT22;51617;48.158;16.464;2022-10-14T08:22:01;15.90;97.90
65044;DHT22;51617;48.158;16.464;2022-10-14T08:24:27;15.90;97.80
65044;DHT22;51617;48.158;16.464;2022-10-14T08:26:53;16.10;97.70
65044;DHT22;51617;48.158;16.464;2022-10-14T08:29:19;16.20;97.70
65044;DHT22;51617;48.158;16.464;2022-10-14T08:31:47;16.20;97.60
65044;DHT22;51617;48.158;16.464;2022-10-14T08:34:12;16.30;97.50
65044;DHT22;51617;48.158;16.464;2022-10-14T08:36:38;16.40;97.60
65044;DHT22;51617;48.158;16.464;2022-10-14T08:39:03;16.50;97.40
65044;DHT22;51617;48.158;16.464;2022-10-14T08:46:25;16.60;97.00
65044;DHT22;51617;48.158;16.464;2022-10-14T08:48:54;16.70;96.90
65044;DHT22;51617;48.158;16.464;2022-10-14T08:51:24;16.90;96.70
65044;DHT22;51617;48.158;16.464;2022-10-14T08:53:53;17.00;96.20
65044;DHT22;51617;48.158;16.464;2022-10-14T08:56:20;17.10;96.00
65044;DHT22;51617;48.158;16.464;2022-10-14T08:58:50;17.10;95.80
65044;DHT22;51617;48.158;16.464;2022-10-14T09:01:26;17.00;95.70
65044;DHT22;51617;48.158;16.464;2022-10-14T09:03:56;17.10;95.80
65044;DHT22;51617;48.158;16.464;2022-10-14T09:08:47;17.20;95.80
65044;DHT22;51617;48.158;16.464;2022-10-14T09:11:17;17.40;95.40
65044;DHT22;51617;48.158;16.464;2022-10-14T09:13:44;17.60;94.90
65044;DHT22;51617;48.158;16.464;2022-10-14T09:16:21;17.70;94.80
65044;DHT22;51617;48.158;16.464;2022-10-14T09:18:49;17.70;94.60
65044;DHT22;51617;48.158;16.464;2022-10-14T09:21:37;17.80;94.50
65044;DHT22;51617;48.158;16.464;2022-10-14T09:26:42;15.30;94.20
65044;DHT22;51617;48.158;16.464;2022-10-14T09:31:43;17.70;94.80
65044;DHT22;51617;48.158;16.464;2022-10-14T09:34:11;17.80;94.50
65044;DHT22;51617;48.158;16.464;2022-10-14T09:36:40;17.70;94.50
65044;DHT22;51617;48.158;16.464;2022-10-14T09:39:07;17.80;95.10
65044;DHT22;51617;48.158;16.464;2022-10-14T09:41:35;17.70;94.50
65044;DHT22;51617;48.158;16.464;2022-10-14T09:46:48;17.80;94.40
65044;DHT22;51617;48.158;16.464;2022-10-14T09:49:18;17.80;94.40
65044;DHT22;51617;48.158;16.464;2022-10-14T09:51:46;17.80;94.30
65044;DHT22;51617;48.158;16.464;2022-10-14T09:54:22;17.70;94.50
65044;DHT22;51617;48.158;16.464;2022-10-14T09:56:48;17.70;94.40
65044;DHT22;51617;48.158;16.464;2022-10-14T09:59:20;17.70;94.30
65044;DHT22;51617;48.158;16.464;2022-10-14T10:01:50;17.70;94.20
65044;DHT22;51617;48.158;16.464;2022-10-14T10:04:50;17.70;94.40
65044;DHT22;51617;48.158;16.464;2022-10-14T10:09:56;18.00;93.90
65044;DHT22;51617;48.158;16.464;2022-10-14T10:12:32;19.60;94.40
65044;DHT22;51617;48.158;16.464;2022-10-14T10:15:01;18.30;93.20
65044;DHT22;51617;48.158;16.464;2022-10-14T10:17:29;18.20;92.90
65044;DHT22;51617;48.158;16.464;2022-10-14T10:20:07;18.20;93.70
65044;DHT22;51617;48.158;16.464;2022-10-14T10:22:33;18.20;93.50
65044;DHT22;51617;48.158;16.464;2022-10-14T10:27:31;18.00;93.80
65044;DHT22;51617;48.158;16.464;2022-10-14T10:30:13;18.10;93.30
65044;DHT22;51617;48.158;16.464;2022-10-14T10:32:44;18.00;92.70
65044;DHT22;51617;48.158;16.464;2022-10-14T10:47:02;18.30;92.90
65044;DHT22;51617;48.158;16.464;2022-10-14T10:57:08;18.60;92.10
65044;DHT22;51617;48.158;16.464;2022-10-14T11:04:46;18.90;91.10
65044;DHT22;51617;48.158;16.464;2022-10-14T11:10:05;19.10;90.30
65044;DHT22;51617;48.158;16.464;2022-10-14T11:15:39;19.00;90.60
65044;DHT22;51617;48.158;16.464;2022-10-14T11:18:10;19.00;90.50
65044;DHT22;51617;48.158;16.464;2022-10-14T11:28:44;19.40;90.20
65044;DHT22;51617;48.158;16.464;2022-10-14T11:43:51;19.20;88.90
65044;DHT22;51617;48.158;16.464;2022-10-14T11:46:19;19.40;88.30
65044;DHT22;51617;48.158;16.464;2022-10-14T11:51:21;19.50;87.70
65044;DHT22;51617;48.158;16.464;2022-10-14T11:56:24;19.50;86.10
65044;DHT22;51617;48.158;16.464;2022-10-14T11:58:53;19.50;87.70
65044;DHT22;51617;48.158;16.464;2022-10-14T12:01:20;19.80;85.90
65044;DHT22;51617;48.158;16.464;2022-10-14T12:03:50;19.90;86.00
65044;DHT22;51617;48.158;16.464;2022-10-14T12:06:24;20.10;85.90
65044;DHT22;51617;48.158;16.464;2022-10-14T12:08:57;20.20;85.40
65044;DHT22;51617;48.158;16.464;2022-10-14T12:11:47;20.20;85.50
65044;DHT22;51617;48.158;16.464;2022-10-14T12:14:21;20.20;85.30
65044;DHT22;51617;48.158;16.464;2022-10-14T12:16:49;20.30;85.70
65044;DHT22;51617;48.158;16.464;2022-10-14T12:19:21;20.40;85.80
65044;DHT22;51617;48.158;16.464;2022-10-14T12:21:49;20.40;84.90
65044;DHT22;51617;48.158;16.464;2022-10-14T12:24:18;20.40;85.00
65044;DHT22;51617;48.158;16.464;2022-10-14T12:29:13;20.30;85.50
65044;DHT22;51617;48.158;16.464;2022-10-14T12:31:40;20.40;85.00
65044;DHT22;51617;48.158;16.464;2022-10-14T12:36:42;20.30;85.50
65044;DHT22;51617;48.158;16.464;2022-10-14T12:44:15;20.40;86.00
65044;DHT22;51617;48.158;16.464;2022-10-14T12:46:46;20.40;85.90
65044;DHT22;51617;48.158;16.464;2022-10-14T12:49:16;20.50;86.00
65044;DHT22;51617;48.158;16.464;2022-10-14T12:52:03;20.40;86.10
65044;DHT22;51617;48.158;16.464;2022-10-14T12:54:29;20.40;85.90
65044;DHT22;51617;48.158;16.464;2022-10-14T12:56:56;20.40;85.70
65044;DHT22;51617;48.158;16.464;2022-10-14T12:59:37;20.40;85.20
65044;DHT22;51617;48.158;16.464;2022-10-14T13:04:50;20.10;86.20
65044;DHT22;51617;48.158;16.464;2022-10-14T13:09:45;19.90;86.90
65044;DHT22;51617;48.158;16.464;2022-10-14T13:12:37;19.80;87.50
65044;DHT22;51617;48.158;16.464;2022-10-14T13:15:00;19.60;87.70
65044;DHT22;51617;48.158;16.464;2022-10-14T13:17:27;19.60;88.10
65044;DHT22;51617;48.158;16.464;2022-10-14T13:19:53;19.60;89.00
65044;DHT22;51617;48.158;16.464;2022-10-14T13:25:04;19.70;89.20
65044;DHT22;51617;48.158;16.464;2022-10-14T13:32:43;19.60;89.70
65044;DHT22;51617;48.158;16.464;2022-10-14T13:38:10;19.70;89.80
65044;DHT22;51617;48.158;16.464;2022-10-14T13:40:44;19.80;90.00
65044;DHT22;51617;48.158;16.464;2022-10-14T13:45:39;19.90;89.30
65044;DHT22;51617;48.158;16.464;2022-10-14T13:48:08;21.30;89.80
65044;DHT22;51617;48.158;16.464;2022-10-14T13:50:38;20.10;88.50
65044;DHT22;51617;48.158;16.464;2022-10-14T13:53:04;19.90;88.40
65044;DHT22;51617;48.158;16.464;2022-10-14T13:55:31;19.90;88.80
65044;DHT22;51617;48.158;16.464;2022-10-14T13:58:13;19.90;88.60
65044;DHT22;51617;48.158;16.464;2022-10-14T14:03:23;19.90;88.60
65044;DHT22;51617;48.158;16.464;2022-10-14T14:05:49;19.90;88.50
65044;DHT22;51617;48.158;16.464;2022-10-14T14:08:16;19.90;88.60
65044;DHT22;51617;48.158;16.464;2022-10-14T14:10:51;19.90;88.60
65044;DHT22;51617;48.158;16.464;2022-10-14T14:13:17;19.90;88.70
65044;DHT22;51617;48.158;16.464;2022-10-14T14:15:47;19.80;89.10
65044;DHT22;51617;48.158;16.464;2022-10-14T14:21:10;19.70;89.90
65044;DHT22;51617;48.158;16.464;2022-10-14T14:23:36;19.70;90.00
65044;DHT22;51617;48.158;16.464;2022-10-14T14:26:12;19.60;90.10
65044;DHT22;51617;48.158;16.464;2022-10-14T14:28:37;19.60;90.10
65044;DHT22;51617;48.158;16.464;2022-10-14T14:31:03;19.70;90.10
65044;DHT22;51617;48.158;16.464;2022-10-14T14:33:30;19.60;90.10
65044;DHT22;51617;48.158;16.464;2022-10-14T14:35:57;19.60;90.20
65044;DHT22;51617;48.158;16.464;2022-10-14T14:40:58;19.50;90.30
65044;DHT22;51617;48.158;16.464;2022-10-14T14:43:24;19.50;90.40
65044;DHT22;51617;48.158;16.464;2022-10-14T14:45:49;19.50;90.60
65044;DHT22;51617;48.158;16.464;2022-10-14T14:48:15;19.50;90.70
65044;DHT22;51617;48.158;16.464;2022-10-14T14:50:42;19.50;90.70
65044;DHT22;51617;48.158;16.464;2022-10-14T14:53:17;19.50;90.90
65044;DHT22;51617;48.158;16.464;2022-10-14T14:58:31;19.60;91.00
65044;DHT22;51617;48.158;16.464;2022-10-14T15:00:57;19.50;90.80
65044;DHT22;51617;48.158;16.464;2022-10-14T15:03:24;19.50;91.10
65044;DHT22;51617;48.158;16.464;2022-10-14T15:05:51;19.50;91.00
65044;DHT22;51617;48.158;16.464;2022-10-14T15:08:18;19.40;91.00
65044;DHT22;51617;48.158;16.464;2022-10-14T15:10:46;19.40;91.10
65044;DHT22;51617;48.158;16.464;2022-10-14T15:13:23;19.40;91.10
65044;DHT22;51617;48.158;16.464;2022-10-14T15:15:52;19.50;91.10
65044;DHT22;51617;48.158;16.464;2022-10-14T15:18:19;19.40;91.10
65044;DHT22;51617;48.158;16.464;2022-10-14T15:20:46;19.40;91.20
65044;DHT22;51617;48.158;16.464;2022-10-14T15:25:57;19.40;91.10
65044;DHT22;51617;48.158;16.464;2022-10-14T15:28:30;19.30;91.00
65044;DHT22;51617;48.158;16.464;2022-10-14T15:30:55;19.20;91.00
65044;DHT22;51617;48.158;16.464;2022-10-14T15:33:25;19.10;91.10
65044;DHT22;51617;48.158;16.464;2022-10-14T15:35:55;19.00;91.00
65044;DHT22;51617;48.158;16.464;2022-10-14T15:38:21;19.00;91.00
65044;DHT22;51617;48.158;16.464;2022-10-14T15:40:47;18.90;91.10
65044;DHT22;51617;48.158;16.464;2022-10-14T15:43:14;18.80;91.10
65044;DHT22;51617;48.158;16.464;2022-10-14T15:45:41;18.70;91.30
65044;DHT22;51617;48.158;16.464;2022-10-14T15:48:07;18.70;91.30
65044;DHT22;51617;48.158;16.464;2022-10-14T15:50:39;18.70;91.30
65044;DHT22;51617;48.158;16.464;2022-10-14T15:53:08;18.60;91.30
65044;DHT22;51617;48.158;16.464;2022-10-14T15:55:34;18.50;91.30
65044;DHT22;51617;48.158;16.464;2022-10-14T15:58:00;18.40;91.50
65044;DHT22;51617;48.158;16.464;2022-10-14T16:00:26;18.40;91.60
65044;DHT22;51617;48.158;16.464;2022-10-14T16:02:55;18.30;91.60
65044;DHT22;51617;48.158;16.464;2022-10-14T16:05:23;18.30;91.60
65044;DHT22;51617;48.158;16.464;2022-10-14T16:07:48;18.30;91.60
65044;DHT22;51617;48.158;16.464;2022-10-14T16:10:15;18.30;91.70
65044;DHT22;51617;48.158;16.464;2022-10-14T16:12:41;18.20;91.70
65044;DHT22;51617;48.158;16.464;2022-10-14T16:15:20;18.10;91.70
65044;DHT22;51617;48.158;16.464;2022-10-14T16:17:47;18.10;91.80
65044;DHT22;51617;48.158;16.464;2022-10-14T16:20:12;18.10;91.80
65044;DHT22;51617;48.158;16.464;2022-10-14T16:22:40;18.10;91.70
65044;DHT22;51617;48.158;16.464;2022-10-14T16:25:05;18.10;91.70
65044;DHT22;51617;48.158;16.464;2022-10-14T16:27:34;18.00;91.60
65044;DHT22;51617;48.158;16.464;2022-10-14T16:30:00;18.00;91.60
65044;DHT22;51617;48.158;16.464;2022-10-14T16:32:25;17.90;91.60
65044;DHT22;51617;48.158;16.464;2022-10-14T16:34:51;17.80;91.70
65044;DHT22;51617;48.158;16.464;2022-10-14T16:37:18;17.80;91.70
65044;DHT22;51617;48.158;16.464;2022-10-14T16:39:44;17.80;91.60
65044;DHT22;51617;48.158;16.464;2022-10-14T16:42:09;17.80;91.60
65044;DHT22;51617;48.158;16.464;2022-10-14T16:44:35;17.80;91.70
65044;DHT22;51617;48.158;16.464;2022-10-14T16:47:00;17.70;91.70
65044;DHT22;51617;48.158;16.464;2022-10-14T16:49:47;17.70;91.70
65044;DHT22;51617;48.158;16.464;2022-10-14T16:52:16;17.70;91.90
65044;DHT22;51617;48.158;16.464;2022-10-14T16:54:42;17.60;91.80
65044;DHT22;51617;48.158;16.464;2022-10-14T16:57:08;17.60;91.70
65044;DHT22;51617;48.158;16.464;2022-10-14T16:59:34;17.50;91.80
65044;DHT22;51617;48.158;16.464;2022-10-14T17:01:59;17.50;91.80
65044;DHT22;51617;48.158;16.464;2022-10-14T17:04:25;17.50;91.80
65044;DHT22;51617;48.158;16.464;2022-10-14T17:06:51;17.50;91.80
65044;DHT22;51617;48.158;16.464;2022-10-14T17:09:16;17.50;91.90
65044;DHT22;51617;48.158;16.464;2022-10-14T17:11:42;17.50;92.00
65044;DHT22;51617;48.158;16.464;2022-10-14T17:14:08;17.50;92.40
65044;DHT22;51617;48.158;16.464;2022-10-14T17:16:35;17.50;92.10
65044;DHT22;51617;48.158;16.464;2022-10-14T17:19:00;17.50;92.10
65044;DHT22;51617;48.158;16.464;2022-10-14T17:21:26;17.50;92.00
65044;DHT22;51617;48.158;16.464;2022-10-14T17:23:59;17.50;91.90
65044;DHT22;51617;48.158;16.464;2022-10-14T17:26:29;17.60;91.80
65044;DHT22;51617;48.158;16.464;2022-10-14T17:28:55;17.60;91.70
65044;DHT22;51617;48.158;16.464;2022-10-14T17:31:21;17.60;91.70
65044;DHT22;51617;48.158;16.464;2022-10-14T17:33:47;17.60;91.60
65044;DHT22;51617;48.158;16.464;2022-10-14T17:38:44;17.50;91.70
65044;DHT22;51617;48.158;16.464;2022-10-14T17:41:11;17.50;91.70
65044;DHT22;51617;48.158;16.464;2022-10-14T17:43:37;17.50;91.70